Time;durP1;ratioP1;P1;durP2;ratioP2;P2;SDS_P1;SDS_P2;PMS_P1;PMS_P2;Temp;Humidity;BMP_temperature;BMP_pressure;BME280_temperature;BME280_humidity;BME280_pressure;Samples;Min_cycle;Max_cycle;Signal;HPM_P1;HPM_P2
2021/09/29 00:01:34;;;;;;;3.80;1.25;;;17.00;1.00;;;;;;4897435;29;20052;-78
2021/09/29 00:03:59;;;;;;;3.30;1.20;;;17.00;1.00;;;;;;4899060;29;20043;-78
2021/09/29 00:06:25;;;;;;;2.58;1.00;;;17.00;1.00;;;;;;4898934;29;20041;-78
2021/09/29 00:08:51;;;;;;;4.03;1.10;;;17.00;1.00;;;;;;4899150;29;20064;-78
2021/09/29 00:11:17;;;;;;;3.78;1.20;;;17.10;1.00;;;;;;4898655;29;20055;-78
2021/09/29 00:13:43;;;;;;;3.33;1.00;;;17.00;1.00;;;;;;4898885;29;20052;-78
2021/09/29 00:16:09;;;;;;;3.65;1.50;;;17.00;1.00;;;;;;4898710;29;20389;-78
2021/09/29 00:18:34;;;;;;;3.20;1.23;;;16.90;1.00;;;;;;4881798;29;20037;-78
2021/09/29 00:21:00;;;;;;;4.28;1.20;;;16.90;1.00;;;;;;4898715;29;20053;-78
2021/09/29 00:23:26;;;;;;;4.07;1.25;;;16.90;1.00;;;;;;4881950;29;20096;-78
2021/09/29 00:25:52;;;;;;;3.38;1.25;;;17.00;1.00;;;;;;4899173;29;20041;-78
2021/09/29 00:28:18;;;;;;;3.15;1.23;;;17.00;1.00;;;;;;4902307;29;20078;-78
2021/09/29 00:31:02;;;;;;;4.18;1.10;;;16.90;1.00;;;;;;4901915;29;20041;-78
2021/09/29 00:33:29;;;;;;;1.83;1.20;;;17.00;1.00;;;;;;4900497;29;20049;-78
2021/09/29 00:35:55;;;;;;;3.38;1.25;;;16.90;1.00;;;;;;4901975;29;20123;-78
2021/09/29 00:38:20;;;;;;;2.05;0.90;;;16.90;1.00;;;;;;4884877;29;20516;-78
2021/09/29 00:40:48;;;;;;;4.10;1.30;;;16.80;1.00;;;;;;4901812;29;20135;-78
2021/09/29 00:43:14;;;;;;;4.47;1.23;;;16.80;1.00;;;;;;4901594;29;20039;-78
2021/09/29 00:45:40;;;;;;;4.68;1.08;;;16.80;1.00;;;;;;4884460;29;20092;-78
2021/09/29 00:48:06;;;;;;;3.67;0.90;;;16.80;1.00;;;;;;4900323;29;20040;-78
2021/09/29 00:50:34;;;;;;;7.88;1.20;;;16.80;1.00;;;;;;4901738;29;20088;-78
2021/09/29 00:53:01;;;;;;;2.88;1.20;;;16.70;1.00;;;;;;4901945;29;20044;-78
2021/09/29 00:55:27;;;;;;;1.67;0.98;;;16.70;1.00;;;;;;4901800;29;20040;-78
2021/09/29 00:57:52;;;;;;;7.03;1.55;;;16.60;1.00;;;;;;4902165;29;20172;-78
2021/09/29 01:00:19;;;;;;;3.67;1.27;;;16.60;1.00;;;;;;4901028;29;20052;-78
2021/09/29 01:02:45;;;;;;;4.38;1.13;;;16.60;1.00;;;;;;4901505;29;20050;-79
2021/09/29 01:05:11;;;;;;;2.92;1.40;;;16.50;1.00;;;;;;4901215;29;20036;-78
2021/09/29 01:08:14;;;;;;;3.72;1.38;;;16.50;1.00;;;;;;4884340;29;20493;-78
2021/09/29 01:11:04;;;;;;;6.07;1.25;;;16.40;1.00;;;;;;4900899;29;20064;-78
2021/09/29 01:14:07;;;;;;;8.48;1.20;;;16.40;1.00;;;;;;4901688;29;20055;-79
2021/09/29 01:16:37;;;;;;;4.00;1.20;;;16.30;1.00;;;;;;4861599;29;20037;-78
2021/09/29 01:19:08;;;;;;;5.82;1.23;;;16.20;1.00;;;;;;4901513;29;20500;-78
2021/09/29 01:21:48;;;;;;;2.65;1.17;;;16.30;1.00;;;;;;4900499;29;20051;-78
2021/09/29 01:24:43;;;;;;;5.88;1.35;;;16.10;1.00;;;;;;4901937;29;20040;-78
2021/09/29 01:27:09;;;;;;;6.20;1.65;;;16.10;1.00;;;;;;4901229;29;20492;-78
2021/09/29 01:29:36;;;;;;;4.45;1.17;;;16.10;1.00;;;;;;4901356;29;20476;-78
2021/09/29 01:32:03;;;;;;;8.75;1.38;;;16.10;1.00;;;;;;4901101;29;20037;-78
2021/09/29 01:34:29;;;;;;;7.20;1.45;;;16.10;1.00;;;;;;4899960;29;20037;-78
2021/09/29 01:36:56;;;;;;;3.92;1.20;;;16.10;1.00;;;;;;4900925;29;20165;-78
2021/09/29 01:39:26;;;;;;;5.78;1.20;;;16.10;1.00;;;;;;4901559;29;20039;-78
2021/09/29 01:41:52;;;;;;;4.50;1.20;;;16.20;1.00;;;;;;4899740;29;20076;-78
2021/09/29 01:44:18;;;;;;;3.92;1.13;;;16.20;1.00;;;;;;4901120;29;20065;-78
2021/09/29 01:46:44;;;;;;;2.72;1.48;;;16.10;1.00;;;;;;4900593;29;20044;-78
2021/09/29 01:49:26;;;;;;;6.85;1.30;;;16.10;1.00;;;;;;4883842;29;20040;-78
2021/09/29 01:51:52;;;;;;;3.95;1.55;;;16.10;1.00;;;;;;4901124;29;20096;-78
2021/09/29 01:54:22;;;;;;;2.28;0.90;;;16.10;1.00;;;;;;4899572;29;20075;-78
2021/09/29 01:56:48;;;;;;;2.95;1.10;;;16.20;1.00;;;;;;4899561;29;20127;-78
2021/09/29 01:59:15;;;;;;;3.05;1.25;;;16.20;1.00;;;;;;4900943;29;20099;-78
2021/09/29 02:01:42;;;;;;;4.03;1.20;;;16.10;1.00;;;;;;4900466;29;20124;-78
2021/09/29 02:04:10;;;;;;;6.20;1.23;;;16.20;1.00;;;;;;4901120;29;20076;-78
2021/09/29 02:06:45;;;;;;;6.90;1.50;;;16.10;1.00;;;;;;4899397;29;20039;-78
2021/09/29 02:09:11;;;;;;;5.88;1.30;;;16.10;1.00;;;;;;4900328;29;20056;-78
2021/09/29 02:11:36;;;;;;;1.65;1.20;;;16.10;1.00;;;;;;4900278;29;20385;-78
2021/09/29 02:14:03;;;;;;;5.40;1.65;;;16.10;1.00;;;;;;4899951;29;20041;-78
2021/09/29 02:16:30;;;;;;;3.92;1.30;;;16.00;1.00;;;;;;4883162;29;20119;-78
2021/09/29 02:18:55;;;;;;;3.15;1.27;;;16.10;1.00;;;;;;4900098;29;20131;-78
2021/09/29 02:21:21;;;;;;;3.35;1.20;;;16.10;1.00;;;;;;4883788;29;20139;-78
2021/09/29 02:23:47;;;;;;;4.72;1.38;;;16.10;1.00;;;;;;4900581;29;20476;-78
2021/09/29 02:26:13;;;;;;;5.90;1.27;;;16.00;1.00;;;;;;4899744;29;20037;-78
2021/09/29 02:28:38;;;;;;;5.63;1.52;;;16.00;1.00;;;;;;4899702;29;20045;-78
2021/09/29 02:31:04;;;;;;;12.90;1.25;;;15.90;1.00;;;;;;4899699;29;20048;-78
2021/09/29 02:33:30;;;;;;;4.43;0.98;;;15.90;1.00;;;;;;4899885;29;20047;-78
2021/09/29 02:35:56;;;;;;;3.85;1.40;;;15.90;1.00;;;;;;4899877;29;20032;-78
2021/09/29 02:38:22;;;;;;;4.47;1.73;;;15.90;1.00;;;;;;4899393;29;20560;-78
2021/09/29 02:40:48;;;;;;;3.55;1.33;;;15.90;1.00;;;;;;4899686;29;20083;-78
2021/09/29 02:43:14;;;;;;;6.65;1.60;;;15.80;1.00;;;;;;4899693;29;20124;-78
2021/09/29 02:45:40;;;;;;;5.72;1.42;;;15.70;1.00;;;;;;4882746;29;20045;-78
2021/09/29 02:48:05;;;;;;;4.68;1.17;;;15.70;1.00;;;;;;4899427;29;20044;-78
2021/09/29 02:50:31;;;;;;;7.57;1.35;;;15.70;1.00;;;;;;4899406;29;20036;-78
2021/09/29 02:52:57;;;;;;;3.83;1.15;;;15.60;1.00;;;;;;4899376;29;20214;-78
2021/09/29 02:55:23;;;;;;;5.40;1.30;;;15.60;1.00;;;;;;4899362;29;20044;-78
2021/09/29 02:57:51;;;;;;;5.47;1.48;;;15.50;1.00;;;;;;4883019;29;20523;-78
2021/09/29 03:00:17;;;;;;;5.93;1.52;;;15.60;1.00;;;;;;4899010;29;20078;-78
2021/09/29 03:02:43;;;;;;;5.75;1.17;;;15.70;1.00;;;;;;4899496;29;20048;-78
2021/09/29 03:05:09;;;;;;;3.08;1.30;;;15.80;1.00;;;;;;4899464;29;20047;-78
2021/09/29 03:07:35;;;;;;;3.83;1.40;;;15.80;1.00;;;;;;4899771;29;20041;-78
2021/09/29 03:10:01;;;;;;;2.85;1.20;;;15.80;1.00;;;;;;4899575;29;20063;-78
2021/09/29 03:12:27;;;;;;;5.70;1.20;;;15.90;1.00;;;;;;4882892;29;20036;-78
2021/09/29 03:14:52;;;;;;;6.22;1.25;;;15.90;1.00;;;;;;4899798;29;20079;-78
2021/09/29 03:17:18;;;;;;;3.05;1.30;;;15.80;1.00;;;;;;4899561;29;20048;-78
2021/09/29 03:19:44;;;;;;;3.55;1.17;;;15.80;1.00;;;;;;4899577;29;20037;-78
2021/09/29 03:22:10;;;;;;;5.80;1.85;;;15.80;1.00;;;;;;4882810;29;20033;-78
2021/09/29 03:24:35;;;;;;;6.72;1.30;;;15.70;1.00;;;;;;4899274;29;20494;-78
2021/09/29 03:27:01;;;;;;;3.67;1.08;;;15.60;1.00;;;;;;4899280;29;20036;-78
2021/09/29 03:29:27;;;;;;;3.90;1.13;;;15.60;1.00;;;;;;4882794;29;20041;-78
2021/09/29 03:31:53;;;;;;;2.92;1.33;;;15.60;1.00;;;;;;4899516;29;20568;-78
2021/09/29 03:34:19;;;;;;;4.60;1.35;;;15.70;1.00;;;;;;4899213;29;20037;-78
2021/09/29 03:36:45;;;;;;;4.15;1.60;;;15.60;1.00;;;;;;4899224;29;20036;-78
2021/09/29 03:39:11;;;;;;;3.22;1.17;;;15.50;1.00;;;;;;4899953;29;20049;-78
2021/09/29 03:41:37;;;;;;;5.05;1.50;;;15.50;1.00;;;;;;4899105;29;20108;-78
2021/09/29 03:44:02;;;;;;;7.15;1.40;;;15.50;1.00;;;;;;4899432;29;20049;-78
2021/09/29 03:46:28;;;;;;;6.28;1.23;;;15.50;1.00;;;;;;4898952;29;20048;-78
2021/09/29 03:48:55;;;;;;;3.88;1.33;;;15.40;1.00;;;;;;4899623;29;20076;-78
2021/09/29 03:51:20;;;;;;;3.55;1.10;;;15.40;1.00;;;;;;4882529;29;20045;-78
2021/09/29 03:53:46;;;;;;;5.88;1.55;;;15.40;1.00;;;;;;4899083;29;20048;-78
2021/09/29 03:56:12;;;;;;;4.15;1.23;;;15.40;1.00;;;;;;4899620;29;20410;-78
2021/09/29 03:58:38;;;;;;;3.60;1.50;;;15.50;1.00;;;;;;4882101;29;20104;-78
2021/09/29 04:01:04;;;;;;;3.20;0.95;;;15.40;1.00;;;;;;4901203;29;20082;-78
2021/09/29 04:03:30;;;;;;;3.85;1.30;;;15.40;1.00;;;;;;4902331;29;20365;-78
2021/09/29 04:05:55;;;;;;;2.63;1.00;;;15.40;1.00;;;;;;4902248;29;20040;-78
2021/09/29 04:08:21;;;;;;;6.68;1.40;;;15.30;1.00;;;;;;4902762;29;20047;-78
2021/09/29 04:10:47;;;;;;;4.25;1.52;;;15.40;1.00;;;;;;4901287;29;20056;-78
2021/09/29 04:13:13;;;;;;;5.88;1.25;;;15.40;1.00;;;;;;4890653;29;20093;-77
2021/09/29 04:15:39;;;;;;;2.83;1.40;;;15.30;1.00;;;;;;4874273;29;20036;-75
2021/09/29 04:18:05;;;;;;;5.78;1.20;;;15.30;1.00;;;;;;4894306;29;20040;-77
2021/09/29 04:20:32;;;;;;;3.63;1.23;;;15.30;1.00;;;;;;4892890;29;20576;-77
2021/09/29 04:22:58;;;;;;;4.90;1.63;;;15.30;1.00;;;;;;4884668;29;20084;-77
2021/09/29 04:25:23;;;;;;;6.05;1.20;;;15.20;1.00;;;;;;4885378;29;20068;-77
2021/09/29 04:27:49;;;;;;;3.67;1.60;;;15.20;1.00;;;;;;4889019;29;20040;-75
2021/09/29 04:30:15;;;;;;;4.03;1.23;;;15.20;1.00;;;;;;4876420;29;20040;-75
2021/09/29 04:32:42;;;;;;;3.90;1.25;;;15.20;1.00;;;;;;4890412;29;20101;-74
2021/09/29 04:35:09;;;;;;;3.63;1.10;;;15.20;1.00;;;;;;4893775;29;20055;-77
2021/09/29 04:37:35;;;;;;;6.07;1.55;;;15.20;1.00;;;;;;4894512;29;20040;-73
2021/09/29 04:40:01;;;;;;;8.32;1.30;;;15.10;1.00;;;;;;4886947;29;20452;-73
2021/09/29 04:42:27;;;;;;;3.75;1.10;;;15.10;1.00;;;;;;4882550;29;20041;-74
2021/09/29 04:44:53;;;;;;;3.83;1.10;;;15.00;1.00;;;;;;4882380;29;20187;-74
2021/09/29 04:47:19;;;;;;;3.42;1.40;;;15.00;1.00;;;;;;4882534;29;20047;-74
2021/09/29 04:49:45;;;;;;;6.60;1.40;;;14.90;1.00;;;;;;4881084;29;20059;-74
2021/09/29 04:52:10;;;;;;;2.65;1.42;;;14.90;1.00;;;;;;4881301;29;20505;-74
2021/09/29 04:54:37;;;;;;;7.32;1.45;;;14.90;1.00;;;;;;4882037;29;20136;-74
2021/09/29 04:57:03;;;;;;;3.00;1.20;;;14.90;1.00;;;;;;4882189;29;20037;-74
2021/09/29 04:59:28;;;;;;;6.88;1.20;;;14.90;1.00;;;;;;4882061;29;20048;-74
2021/09/29 05:01:54;;;;;;;3.30;1.55;;;14.80;1.00;;;;;;4882419;29;20136;-74
2021/09/29 05:04:25;;;;;;;2.63;1.45;;;14.80;1.00;;;;;;4883257;29;20040;-74
2021/09/29 05:06:53;;;;;;;6.60;1.50;;;14.80;1.00;;;;;;4882784;29;20041;-74
2021/09/29 05:09:18;;;;;;;4.88;1.50;;;14.70;1.00;;;;;;4883625;29;20149;-74
2021/09/29 05:11:50;;;;;;;4.82;1.40;;;14.70;1.00;;;;;;4882055;29;20456;-74
2021/09/29 05:14:16;;;;;;;5.68;1.55;;;14.70;1.00;;;;;;4883224;29;20045;-74
2021/09/29 05:16:42;;;;;;;4.45;1.40;;;14.70;1.00;;;;;;4882527;29;20132;-74
2021/09/29 05:19:08;;;;;;;3.70;1.85;;;14.70;1.00;;;;;;4882827;29;20045;-74
2021/09/29 05:21:34;;;;;;;2.95;1.38;;;14.70;1.00;;;;;;4882446;29;20404;-74
2021/09/29 05:24:01;;;;;;;3.00;1.30;;;14.70;1.00;;;;;;4882603;29;20056;-74
2021/09/29 05:26:27;;;;;;;8.50;1.60;;;14.60;1.00;;;;;;4882973;29;20067;-74
2021/09/29 05:28:55;;;;;;;7.18;1.52;;;14.70;1.00;;;;;;4882945;29;20115;-74
2021/09/29 05:31:21;;;;;;;4.72;1.35;;;14.60;1.00;;;;;;4882028;29;20044;-73
2021/09/29 05:33:47;;;;;;;6.10;1.40;;;14.60;1.00;;;;;;4882308;29;20127;-74
2021/09/29 05:36:14;;;;;;;4.80;1.10;;;14.60;1.00;;;;;;4882813;29;20071;-74
2021/09/29 05:38:39;;;;;;;4.00;1.27;;;14.70;1.00;;;;;;4882734;29;20044;-74
2021/09/29 05:41:05;;;;;;;5.68;1.40;;;14.70;1.00;;;;;;4882008;29;20382;-74
2021/09/29 05:43:31;;;;;;;3.47;1.40;;;14.60;1.00;;;;;;4882152;29;20056;-73
2021/09/29 05:45:59;;;;;;;5.00;1.67;;;14.70;1.00;;;;;;4881901;29;20037;-74
2021/09/29 05:48:24;;;;;;;5.18;1.23;;;14.60;1.00;;;;;;4865839;29;20421;-73
2021/09/29 05:50:50;;;;;;;4.50;1.40;;;14.60;1.00;;;;;;4881984;29;20040;-73
2021/09/29 05:53:16;;;;;;;2.78;1.20;;;14.60;1.00;;;;;;4881962;29;20041;-73
2021/09/29 05:55:42;;;;;;;5.65;1.80;;;14.70;1.00;;;;;;4881887;29;20037;-73
2021/09/29 05:58:08;;;;;;;4.57;1.42;;;14.80;1.00;;;;;;4882220;29;20052;-73
2021/09/29 06:00:34;;;;;;;5.00;1.33;;;14.80;1.00;;;;;;4881295;29;20105;-74
2021/09/29 06:02:59;;;;;;;3.92;1.35;;;14.90;1.00;;;;;;4881058;29;20093;-74
2021/09/29 06:05:25;;;;;;;6.25;1.60;;;14.90;1.00;;;;;;4881711;29;20036;-74
2021/09/29 06:07:51;;;;;;;3.75;1.50;;;14.90;1.00;;;;;;4881556;29;20481;-74
2021/09/29 06:10:17;;;;;;;4.70;1.65;;;15.00;1.00;;;;;;4881148;29;20049;-74
2021/09/29 06:12:43;;;;;;;5.40;1.80;;;15.00;1.00;;;;;;4881665;29;20477;-74
2021/09/29 06:15:10;;;;;;;5.70;2.10;;;15.10;1.00;;;;;;4881388;29;20041;-74
2021/09/29 06:20:04;;;;;;;4.20;1.30;;;15.20;1.00;;;;;;4879620;29;20076;-74
2021/09/29 06:22:30;;;;;;;4.68;1.77;;;15.30;1.00;;;;;;4881212;29;20080;-73
2021/09/29 06:24:55;;;;;;;4.63;1.50;;;15.40;1.00;;;;;;4880458;29;20065;-73
2021/09/29 06:27:21;;;;;;;4.38;1.60;;;15.50;1.00;;;;;;4890725;29;20574;-74
2021/09/29 06:29:47;;;;;;;5.00;1.38;;;15.50;1.00;;;;;;4899875;29;20130;-73
2021/09/29 06:32:13;;;;;;;2.28;1.20;;;15.50;1.00;;;;;;4898815;29;20124;-74
2021/09/29 06:34:39;;;;;;;4.30;1.55;;;15.60;1.00;;;;;;4899511;29;20049;-74
2021/09/29 06:37:04;;;;;;;4.32;1.25;;;15.60;1.00;;;;;;4899277;29;20493;-74
2021/09/29 06:39:30;;;;;;;3.92;1.40;;;15.70;1.00;;;;;;4897537;29;20052;-74
2021/09/29 06:41:56;;;;;;;2.20;1.20;;;15.80;1.00;;;;;;4897095;29;20049;-73
2021/09/29 06:44:22;;;;;;;4.32;1.42;;;15.90;1.00;;;;;;4899005;29;20086;-73
2021/09/29 06:46:48;;;;;;;2.22;1.60;;;16.00;1.00;;;;;;4898608;29;20047;-73
2021/09/29 06:49:14;;;;;;;2.83;1.33;;;16.00;1.00;;;;;;4899408;29;20131;-74
2021/09/29 06:51:40;;;;;;;5.10;1.67;;;16.10;1.00;;;;;;4899860;29;20067;-73
2021/09/29 06:54:06;;;;;;;2.80;1.30;;;16.30;1.00;;;;;;4899353;29;20054;-74
2021/09/29 06:56:32;;;;;;;3.22;1.30;;;16.30;1.00;;;;;;4899340;29;20044;-74
2021/09/29 06:58:57;;;;;;;4.07;1.30;;;16.40;1.00;;;;;;4899330;29;20067;-73
2021/09/29 07:01:23;;;;;;;2.38;1.40;;;16.50;1.00;;;;;;4899220;29;20086;-74
2021/09/29 07:03:50;;;;;;;4.20;1.77;;;16.50;1.00;;;;;;4898505;29;20519;-73
2021/09/29 07:06:16;;;;;;;2.95;1.33;;;16.50;1.00;;;;;;4898451;29;20036;-74
2021/09/29 07:08:43;;;;;;;3.78;1.77;;;16.50;1.00;;;;;;4898866;29;20128;-75
2021/09/29 07:11:09;;;;;;;5.28;1.42;;;16.50;1.00;;;;;;4899095;29;20040;-74
2021/09/29 07:13:35;;;;;;;3.35;1.40;;;16.50;1.00;;;;;;4900178;29;20044;-74
2021/09/29 07:16:04;;;;;;;4.55;1.40;;;16.60;1.00;;;;;;4899419;29;20044;-74
2021/09/29 07:18:31;;;;;;;3.70;1.38;;;16.60;1.00;;;;;;4899861;29;20127;-73
2021/09/29 07:20:59;;;;;;;3.65;1.10;;;16.50;1.00;;;;;;4899526;29;20045;-73
2021/09/29 07:23:25;;;;;;;6.07;1.42;;;16.50;1.00;;;;;;4899315;29;20358;-73
2021/09/29 07:25:52;;;;;;;5.38;1.60;;;16.50;1.00;;;;;;4899542;29;20040;-73
2021/09/29 07:28:17;;;;;;;3.53;1.50;;;16.50;1.00;;;;;;4899611;29;20044;-73
2021/09/29 07:30:45;;;;;;;4.30;1.45;;;16.50;1.00;;;;;;4899143;29;20370;-73
2021/09/29 07:33:13;;;;;;;2.05;1.20;;;16.60;1.00;;;;;;4899522;29;20497;-73
2021/09/29 07:35:41;;;;;;;4.75;1.25;;;16.80;1.00;;;;;;4901288;29;20047;-73
2021/09/29 07:38:07;;;;;;;5.10;1.60;;;17.00;1.00;;;;;;4903079;29;20045;-73
2021/09/29 07:40:34;;;;;;;4.90;1.58;;;17.00;1.00;;;;;;4903244;29;20068;-73
2021/09/29 07:43:00;;;;;;;5.90;1.42;;;17.00;1.00;;;;;;4903536;29;20516;-73
2021/09/29 07:45:27;;;;;;;3.40;1.25;;;16.90;1.00;;;;;;4903043;29;20033;-73
2021/09/29 07:47:53;;;;;;;4.07;1.30;;;17.00;1.00;;;;;;4903417;29;20048;-73
2021/09/29 07:50:20;;;;;;;1.92;1.00;;;16.90;1.00;;;;;;4903160;29;20044;-73
2021/09/29 07:52:47;;;;;;;7.35;1.70;;;16.80;1.00;;;;;;4903070;29;20037;-73
2021/09/29 07:55:13;;;;;;;4.35;1.40;;;16.70;1.00;;;;;;4902750;29;20428;-73
2021/09/29 07:57:41;;;;;;;4.80;1.35;;;16.70;1.00;;;;;;4902579;29;20072;-73
2021/09/29 08:00:10;;;;;;;5.72;1.50;;;16.80;1.00;;;;;;4902917;29;20071;-73
2021/09/29 08:02:36;;;;;;;4.50;1.70;;;16.70;1.00;;;;;;4902606;29;20523;-73
2021/09/29 08:05:04;;;;;;;3.80;1.13;;;16.70;1.00;;;;;;4902588;29;20048;-73
2021/09/29 08:07:30;;;;;;;2.83;1.10;;;16.70;1.00;;;;;;4902880;29;20064;-73
2021/09/29 08:09:56;;;;;;;4.45;1.40;;;16.70;1.00;;;;;;4902861;29;20049;-72
2021/09/29 08:12:22;;;;;;;6.78;1.30;;;16.90;1.00;;;;;;4902764;29;20047;-73
2021/09/29 08:14:48;;;;;;;4.75;1.50;;;16.90;1.00;;;;;;4902411;29;20048;-73
2021/09/29 08:17:14;;;;;;;3.75;2.05;;;16.80;1.00;;;;;;4902566;29;20437;-71
2021/09/29 08:19:40;;;;;;;4.63;1.70;;;16.70;1.00;;;;;;4902517;29;20096;-72
2021/09/29 08:22:09;;;;;;;6.20;1.90;;;16.70;1.00;;;;;;4902652;29;20052;-72
2021/09/29 08:27:33;;;;;;;5.13;1.55;;;16.90;1.00;;;;;;4902465;29;20047;-72
2021/09/29 08:32:41;;;;;;;4.47;1.30;;;17.00;1.00;;;;;;4902212;29;20039;-72
2021/09/29 08:35:45;;;;;;;4.32;1.27;;;17.00;1.00;;;;;;4902090;29;20408;-72
2021/09/29 08:40:29;;;;;;;4.53;1.40;;;16.90;1.00;;;;;;4902180;29;20079;-72
2021/09/29 08:43:20;;;;;;;4.55;1.25;;;16.90;1.00;;;;;;4902544;29;20052;-72
2021/09/29 08:45:53;;;;;;;;;;;16.90;1.00;;;;;;4902226;29;20048;-72
2021/09/29 08:49:05;;;;;;;5.30;1.40;;;17.00;1.00;;;;;;4901160;29;19966;-73
2021/09/29 09:15:48;;;;;;;4.35;1.30;;;17.70;1.00;;;;;;4899518;29;20048;-73
2021/09/29 09:18:16;;;;;;;2.40;1.05;;;17.60;1.00;;;;;;4900367;29;20037;-72
2021/09/29 09:20:51;;;;;;;3.35;1.05;;;17.60;1.00;;;;;;4900756;29;20212;-73
2021/09/29 09:23:17;;;;;;;3.20;1.13;;;17.60;1.00;;;;;;4901225;29;20045;-72
2021/09/29 09:25:44;;;;;;;6.13;1.75;;;17.50;1.00;;;;;;4901451;29;20051;-72
2021/09/29 09:28:29;;;;;;;4.30;1.60;;;17.40;1.00;;;;;;4901396;29;20032;-72
2021/09/29 09:31:27;;;;;;;5.88;1.33;;;17.50;1.00;;;;;;4900998;29;20188;-72
2021/09/29 09:33:59;;;;;;;4.90;1.42;;;17.70;1.00;;;;;;4900501;29;20366;-72
2021/09/29 09:36:34;;;;;;;4.95;1.42;;;17.80;1.00;;;;;;4901522;29;20477;-72
2021/09/29 09:39:09;;;;;;;3.60;1.23;;;18.00;1.00;;;;;;4901171;29;20164;-72
2021/09/29 09:41:35;;;;;;;6.35;1.70;;;18.00;1.00;;;;;;4901114;29;20527;-72
2021/09/29 09:44:04;;;;;;;3.95;1.50;;;18.00;1.00;;;;;;4900093;29;20566;-75
2021/09/29 09:46:31;;;;;;;1.98;1.20;;;17.90;1.00;;;;;;4899652;29;20056;-74
2021/09/29 09:49:11;;;;;;;2.95;1.55;;;17.90;1.00;;;;;;4888594;29;20088;-72
2021/09/29 09:51:49;;;;;;;2.83;1.48;;;17.70;1.00;;;;;;4897985;29;20484;-72
2021/09/29 09:54:15;;;;;;;3.88;1.65;;;17.60;1.00;;;;;;4899535;29;20041;-72
2021/09/29 09:56:45;;;;;;;3.22;1.60;;;17.60;1.00;;;;;;4900262;29;20044;-72
2021/09/29 09:59:11;;;;;;;4.72;1.48;;;17.80;1.00;;;;;;4900284;29;20530;-72
2021/09/29 10:01:40;;;;;;;4.68;1.30;;;18.00;1.00;;;;;;4900533;29;20048;-72
2021/09/29 10:04:11;;;;;;;3.28;1.55;;;17.80;1.00;;;;;;4899242;29;20063;-72
2021/09/29 10:06:40;;;;;;;3.75;1.30;;;17.60;1.00;;;;;;4898963;29;20702;-72
2021/09/29 10:09:24;;;;;;;6.60;1.52;;;17.30;1.00;;;;;;4900397;29;20063;-72
2021/09/29 10:12:01;;;;;;;4.82;1.20;;;17.30;1.00;;;;;;4899697;29;20048;-72
2021/09/29 10:14:46;;;;;;;5.43;1.52;;;17.30;1.00;;;;;;4899596;29;20048;-73
2021/09/29 10:28:19;;;;;;;3.63;1.52;;;17.50;1.00;;;;;;4899574;29;20063;-73
2021/09/29 10:31:11;;;;;;;7.25;1.30;;;17.60;1.00;;;;;;4899841;29;20127;-73
2021/09/29 10:33:42;;;;;;;2.45;1.13;;;17.60;1.00;;;;;;4899942;29;20036;-73
2021/09/29 10:44:43;;;;;;;2.25;1.20;;;17.80;1.00;;;;;;4899866;29;20575;-73
2021/09/29 10:47:33;;;;;;;4.07;1.60;;;17.90;1.00;;;;;;4898904;29;20044;-73
2021/09/29 11:27:29;;;;;;;;;;;18.30;1.00;;;;;;4886242;29;20040;-72
2021/09/29 11:31:03;;;;;;;6.35;1.33;;;18.70;1.00;;;;;;4897104;29;20076;-72
2021/09/29 11:33:57;;;;;;;3.53;1.27;;;18.60;1.00;;;;;;4897495;29;20533;-72
2021/09/29 12:11:22;;;;;;;3.92;1.08;;;18.70;1.00;;;;;;4891540;29;20032;-73
2021/09/29 12:14:05;;;;;;;4.38;1.17;;;18.70;1.00;;;;;;4883733;29;20048;-73
2021/09/29 12:16:35;;;;;;;5.15;1.20;;;19.00;1.00;;;;;;4887502;29;20036;-73
2021/09/29 12:19:04;;;;;;;4.60;1.20;;;19.00;1.00;;;;;;4880383;29;20068;-73
2021/09/29 12:21:50;;;;;;;4.78;1.40;;;18.80;1.00;;;;;;4881450;29;20049;-73
2021/09/29 12:24:33;;;;;;;4.30;1.20;;;18.70;1.00;;;;;;4883410;29;20037;-73
2021/09/29 12:27:01;;;;;;;2.85;0.93;;;18.60;1.00;;;;;;4893016;29;20492;-73
2021/09/29 12:35:06;;;;;;;3.92;1.00;;;18.70;1.00;;;;;;4887561;29;20119;-73
2021/09/29 12:37:32;;;;;;;2.58;1.02;;;18.70;1.00;;;;;;4882931;29;20048;-74
2021/09/29 12:39:58;;;;;;;3.05;1.02;;;18.70;1.00;;;;;;4882828;29;20037;-74
2021/09/29 12:42:38;;;;;;;3.50;1.10;;;18.70;1.00;;;;;;4883072;29;20136;-73
2021/09/29 12:45:04;;;;;;;3.13;1.20;;;18.60;1.00;;;;;;4895446;29;20044;-73
2021/09/29 12:50:09;;;;;;;3.75;1.05;;;18.70;1.00;;;;;;4890221;29;20040;-73
2021/09/29 12:52:37;;;;;;;4.80;1.25;;;18.80;1.00;;;;;;4892569;29;20476;-73
2021/09/29 12:55:04;;;;;;;3.53;1.23;;;18.80;1.00;;;;;;4893979;29;20043;-73
2021/09/29 12:57:30;;;;;;;3.95;1.77;;;18.80;1.00;;;;;;4892925;29;20048;-73
2021/09/29 13:00:00;;;;;;;3.53;1.15;;;18.80;1.00;;;;;;4901109;29;20067;-72
2021/09/29 13:02:26;;;;;;;2.45;0.95;;;18.90;1.00;;;;;;4888820;29;20105;-73
2021/09/29 13:04:53;;;;;;;1.98;0.70;;;18.90;1.00;;;;;;4899523;29;20044;-73
2021/09/29 13:07:19;;;;;;;2.50;1.10;;;18.90;1.00;;;;;;4892280;29;20052;-73
2021/09/29 13:09:45;;;;;;;5.25;0.80;;;18.90;1.00;;;;;;4891377;29;20044;-73
2021/09/29 13:12:11;;;;;;;8.90;1.23;;;18.80;1.00;;;;;;4889080;29;20036;-73
2021/09/29 13:14:38;;;;;;;3.42;1.00;;;18.90;1.00;;;;;;4884218;29;20052;-73
2021/09/29 13:17:05;;;;;;;2.90;1.20;;;18.80;1.00;;;;;;4887038;29;20040;-73
2021/09/29 13:19:40;;;;;;;5.60;1.00;;;18.70;1.00;;;;;;4886018;29;20044;-73
2021/09/29 13:22:16;;;;;;;5.78;1.52;;;18.80;1.00;;;;;;4891870;29;20052;-73
2021/09/29 13:25:04;;;;;;;5.47;1.00;;;18.70;1.00;;;;;;4893548;29;20055;-73
2021/09/29 13:35:03;;;;;;;3.25;1.00;;;18.80;1.00;;;;;;4896224;29;20056;-73
2021/09/29 13:38:13;;;;;;;2.97;0.95;;;18.70;1.00;;;;;;4888629;29;20491;-73
2021/09/29 13:40:44;;;;;;;4.63;1.15;;;18.80;1.00;;;;;;4896391;29;20112;-73
2021/09/29 13:43:10;;;;;;;6.57;1.30;;;18.80;1.00;;;;;;4898586;29;20091;-72
2021/09/29 13:45:37;;;;;;;4.90;0.90;;;18.80;1.00;;;;;;4891942;29;20456;-73
2021/09/29 13:48:04;;;;;;;5.18;1.40;;;18.80;1.00;;;;;;4895048;29;20045;-72
2021/09/29 13:50:30;;;;;;;2.10;0.90;;;18.90;1.00;;;;;;4897470;29;20412;-74
2021/09/29 13:52:58;;;;;;;8.52;1.58;;;18.80;1.00;;;;;;4890416;29;20083;-73
2021/09/29 13:55:27;;;;;;;3.35;1.33;;;18.90;1.00;;;;;;4891161;29;20048;-73
2021/09/29 14:00:30;;;;;;;3.72;0.85;;;19.20;1.00;;;;;;4888332;29;20165;-73
2021/09/29 14:32:32;;;;;;;3.40;1.10;;;19.10;1.00;;;;;;4847558;29;20121;-73
2021/09/29 14:34:59;;;;;;;5.32;1.17;;;19.20;1.00;;;;;;4854557;29;20065;-73
2021/09/29 14:37:25;;;;;;;6.00;1.33;;;19.20;1.00;;;;;;4844011;29;20177;-73
2021/09/29 14:39:50;;;;;;;6.50;1.02;;;19.10;1.00;;;;;;4843958;29;20462;-73
2021/09/29 14:42:16;;;;;;;3.92;0.90;;;19.10;1.00;;;;;;4844141;29;20253;-73
2021/09/29 14:44:43;;;;;;;4.15;1.10;;;18.90;1.00;;;;;;4843172;29;20536;-73
2021/09/29 14:47:10;;;;;;;5.20;1.27;;;18.90;1.00;;;;;;4843670;29;20054;-73
2021/09/29 14:49:44;;;;;;;3.40;0.95;;;18.80;1.00;;;;;;4843835;29;20046;-73
2021/09/29 14:52:13;;;;;;;3.20;0.95;;;18.80;1.00;;;;;;4844590;29;20046;-73
2021/09/29 14:54:39;;;;;;;2.15;0.88;;;18.70;1.00;;;;;;4844192;29;20046;-73
2021/09/29 14:57:10;;;;;;;4.95;1.05;;;18.70;1.00;;;;;;4843840;29;20045;-73
2021/09/29 14:59:46;;;;;;;2.40;0.82;;;18.60;1.00;;;;;;4844308;29;20076;-73
2021/09/29 15:02:14;;;;;;;3.50;1.10;;;18.60;1.00;;;;;;4844297;29;20126;-73
2021/09/29 15:04:40;;;;;;;4.70;1.20;;;18.60;1.00;;;;;;4843821;29;20046;-73
2021/09/29 15:07:06;;;;;;;4.35;0.80;;;18.60;1.00;;;;;;4843611;29;20106;-72
2021/09/29 15:09:33;;;;;;;2.95;0.90;;;18.60;1.00;;;;;;4860854;29;20144;-73
2021/09/29 15:11:59;;;;;;;2.08;0.60;;;18.60;1.00;;;;;;4880845;29;20055;-73
2021/09/29 15:14:31;;;;;;;1.73;0.80;;;18.60;1.00;;;;;;4881065;29;20497;-73
2021/09/29 15:17:05;;;;;;;1.85;0.77;;;18.70;1.00;;;;;;4881026;29;20045;-73
2021/09/29 15:19:44;;;;;;;2.90;0.77;;;18.80;1.00;;;;;;4880932;29;20052;-73
2021/09/29 15:27:55;;;;;;;3.15;1.00;;;19.30;1.00;;;;;;4880532;29;20528;-73
2021/09/29 15:48:49;;;;;;;5.22;0.77;;;18.50;1.00;;;;;;4880547;29;20032;-72
2021/09/29 15:51:21;;;;;;;3.08;0.80;;;18.40;1.00;;;;;;4881352;29;20192;-73
2021/09/29 16:01:32;;;;;;;4.53;1.20;;;18.10;1.00;;;;;;4884041;29;20131;-73
2021/09/29 16:04:06;;;;;;;2.97;0.90;;;18.10;1.00;;;;;;4884550;29;20148;-73
2021/09/29 16:30:39;;;;;;;2.85;0.70;;;17.80;1.00;;;;;;4883176;29;20120;-73
2021/09/29 16:33:31;;;;;;;1.50;0.68;;;17.70;1.00;;;;;;4889179;29;20045;-75
2021/09/29 16:35:51;;;;;;;2.90;0.93;;;17.70;1.00;;;;;;4901633;29;20169;-75
2021/09/29 16:38:17;;;;;;;2.60;0.88;;;17.70;1.00;;;;;;4902080;29;20063;-76
2021/09/29 16:40:43;;;;;;;3.00;0.70;;;17.70;1.00;;;;;;4901758;29;20051;-76
2021/09/29 16:43:09;;;;;;;2.33;1.00;;;17.60;1.00;;;;;;4901040;29;20059;-76
2021/09/29 16:45:36;;;;;;;2.47;0.90;;;17.60;1.00;;;;;;4901724;29;20108;-76
2021/09/29 16:48:03;;;;;;;1.45;0.50;;;17.50;1.00;;;;;;4902180;29;20072;-76
2021/09/29 16:50:40;;;;;;;2.22;0.63;;;17.50;1.00;;;;;;4901924;29;20063;-76
2021/09/29 16:53:10;;;;;;;4.97;0.88;;;17.40;1.00;;;;;;4901487;29;20048;-76
2021/09/29 16:55:40;;;;;;;4.07;0.70;;;17.40;1.00;;;;;;4901657;29;20048;-75
2021/09/29 16:58:11;;;;;;;2.72;1.08;;;17.40;1.00;;;;;;4901983;29;20044;-75